createdAt,value
2023-11-22T00:02:19.155Z,100274.84
2023-11-22T00:04:46.090Z,100274.91
2023-11-22T00:07:13.067Z,100268.84
2023-11-22T00:09:39.799Z,100272.38
2023-11-22T00:12:07.499Z,100277.81
2023-11-22T00:14:36.345Z,100279.59
2023-11-22T00:17:03.454Z,100285.78
2023-11-22T00:19:33.980Z,100287.63
2023-11-22T00:22:00.732Z,100292.97
2023-11-22T00:24:27.477Z,100301.87
2023-11-22T00:26:54.240Z,100298.44
2023-11-22T00:29:21.001Z,100304.63
2023-11-22T00:31:47.818Z,100312.63
2023-11-22T00:34:16.173Z,100310.97
2023-11-22T00:36:44.873Z,100314.50
2023-11-22T00:39:14.196Z,100305.78
2023-11-22T00:41:41.010Z,100309.34
2023-11-22T00:44:07.898Z,100303.25
2023-11-22T00:46:34.595Z,100298.91
2023-11-22T00:49:01.300Z,100298.97
2023-11-22T00:51:28.242Z,100287.59
2023-11-22T00:53:56.170Z,100305.22
2023-11-22T00:56:22.913Z,100310.56
2023-11-22T00:58:51.017Z,100307.09
2023-11-22T01:01:19.345Z,100307.16
2023-11-22T01:03:46.091Z,100304.59
2023-11-22T01:06:13.777Z,100304.63
2023-11-22T01:08:40.557Z,100303.84
2023-11-22T01:11:07.254Z,100309.19
2023-11-22T01:13:34.001Z,100304.00
2023-11-22T01:16:00.627Z,100314.56
2023-11-22T01:18:28.495Z,100319.06
2023-11-22T01:20:55.322Z,100319.09
2023-11-22T01:23:22.028Z,100326.16
2023-11-22T01:25:48.873Z,100327.16
2023-11-22T01:28:15.588Z,100317.56
2023-11-22T01:30:42.266Z,100320.19
2023-11-22T01:33:08.942Z,100323.75
2023-11-22T01:35:35.656Z,100322.06
2023-11-22T01:38:05.382Z,100325.63
2023-11-22T01:40:32.872Z,100328.34
2023-11-22T01:43:00.063Z,100331.09
2023-11-22T01:45:27.562Z,100323.16
2023-11-22T01:47:54.393Z,100327.66
2023-11-22T01:50:21.251Z,100333.84
2023-11-22T01:52:47.944Z,100337.34
2023-11-22T01:55:15.401Z,100329.28
2023-11-22T01:57:42.131Z,100335.09
2023-11-22T02:00:09.379Z,100336.44
2023-11-22T02:02:36.278Z,100340.41
2023-11-22T02:05:03.566Z,100345.25
2023-11-22T02:07:30.219Z,100347.38
2023-11-22T02:09:57.047Z,100356.41
2023-11-22T02:12:23.772Z,100347.91
2023-11-22T02:14:50.675Z,100348.03
2023-11-22T02:17:18.226Z,100354.19
2023-11-22T02:19:45.039Z,100351.56
2023-11-22T02:22:12.227Z,100360.62
2023-11-22T02:24:38.921Z,100354.78
2023-11-22T02:27:05.625Z,100361.25
2023-11-22T02:29:32.473Z,100367.94
2023-11-22T02:31:59.264Z,100370.28
2023-11-22T02:34:26.669Z,100371.78
2023-11-22T02:37:01.222Z,100377.72
2023-11-22T02:39:37.167Z,100364.41
2023-11-22T02:42:05.063Z,100364.22
2023-11-22T02:44:31.900Z,100368.56
2023-11-22T02:46:58.893Z,100369.31
2023-11-22T02:49:25.688Z,100369.16
2023-11-22T02:51:52.345Z,100370.88
2023-11-22T02:54:19.084Z,100373.44
2023-11-22T02:56:46.171Z,100380.50
2023-11-22T02:59:14.608Z,100389.31
2023-11-22T03:01:46.418Z,100396.31
2023-11-22T03:04:15.767Z,100403.34
2023-11-22T03:06:42.496Z,100391.78
2023-11-22T03:09:09.709Z,100398.75
2023-11-22T03:11:37.295Z,100397.81
2023-11-22T03:14:05.005Z,100399.63
2023-11-22T03:16:31.955Z,100403.97
2023-11-22T03:18:59.427Z,100400.44
2023-11-22T03:21:29.032Z,100403.09
2023-11-22T03:23:55.769Z,100407.47
2023-11-22T03:26:22.461Z,100407.41
2023-11-22T03:28:49.166Z,100403.81
2023-11-22T03:31:18.435Z,100414.41
2023-11-22T03:33:45.124Z,100418.72
2023-11-22T03:36:12.329Z,100424.03
2023-11-22T03:38:40.889Z,100419.59
2023-11-22T03:41:07.617Z,100423.09
2023-11-22T03:43:34.293Z,100423.00
2023-11-22T03:46:00.995Z,100430.91
2023-11-22T03:48:27.869Z,100426.47
2023-11-22T03:50:54.626Z,100426.53
2023-11-22T03:53:23.026Z,100438.88
2023-11-22T03:55:53.696Z,100433.41
2023-11-22T03:58:20.463Z,100435.94
2023-11-22T04:00:47.556Z,100441.06
2023-11-22T04:03:14.438Z,100440.94
2023-11-22T04:05:41.798Z,100447.06
2023-11-22T04:08:09.744Z,100439.88
2023-11-22T04:10:36.600Z,100441.53
2023-11-22T04:13:03.428Z,100432.56
2023-11-22T04:15:30.886Z,100452.84
2023-11-22T04:17:58.099Z,100446.63
2023-11-22T04:20:25.171Z,100454.72
2023-11-22T04:22:52.259Z,100453.91
2023-11-22T04:25:19.283Z,100448.78
2023-11-22T04:27:46.028Z,100452.47
2023-11-22T04:30:18.357Z,100463.22
2023-11-22T04:32:45.742Z,100459.91
2023-11-22T04:35:13.300Z,100461.06
2023-11-22T04:37:40.135Z,100456.03
2023-11-22T04:40:12.514Z,100451.75
2023-11-22T04:42:39.384Z,100458.19
2023-11-22T04:45:07.320Z,100464.63
2023-11-22T04:47:36.051Z,100468.34
2023-11-22T04:50:05.502Z,100472.09
2023-11-22T04:52:33.268Z,100473.22
2023-11-22T04:54:59.987Z,100481.37
2023-11-22T04:57:27.154Z,100481.63
2023-11-22T04:59:54.629Z,100478.31
2023-11-22T05:02:21.702Z,100476.72
2023-11-22T05:04:53.551Z,100479.56
2023-11-22T05:07:20.380Z,100479.81
2023-11-22T05:09:47.118Z,100479.19
2023-11-22T05:12:13.921Z,100484.75
2023-11-22T05:14:40.810Z,100493.75
2023-11-22T05:17:07.491Z,100494.00
2023-11-22T05:19:34.198Z,100502.09
2023-11-22T05:22:00.951Z,100513.78
2023-11-22T05:24:27.670Z,100509.59
2023-11-22T05:26:54.286Z,100510.72
2023-11-22T05:29:21.149Z,100509.09
2023-11-22T05:31:47.864Z,100511.00
2023-11-22T05:34:14.613Z,100517.31
2023-11-22T05:36:41.683Z,100527.16
2023-11-22T05:39:10.579Z,100527.28
2023-11-22T05:41:37.312Z,100526.53
2023-11-22T05:44:04.201Z,100532.00
2023-11-22T05:46:31.080Z,100540.03
2023-11-22T05:48:57.719Z,100544.59
2023-11-22T05:51:24.419Z,100550.94
2023-11-22T05:53:51.179Z,100554.53
2023-11-22T05:56:18.174Z,100559.06
2023-11-22T05:58:44.937Z,100556.59
2023-11-22T06:01:13.383Z,100554.88
2023-11-22T06:03:40.319Z,100560.28
2023-11-22T06:06:07.921Z,100565.66
2023-11-22T06:08:34.703Z,100560.47
2023-11-22T06:11:01.529Z,100559.69
2023-11-22T06:13:28.715Z,100560.62
2023-11-22T06:15:58.183Z,100578.28
2023-11-22T06:18:30.807Z,100579.16
2023-11-22T06:20:57.978Z,100587.03
2023-11-22T06:23:24.722Z,100597.28
2023-11-22T06:25:51.570Z,100596.91
2023-11-22T06:28:18.979Z,100596.41
2023-11-22T06:30:45.633Z,100606.31
2023-11-22T06:33:12.310Z,100614.62
2023-11-22T06:35:39.114Z,100607.88
2023-11-22T06:38:05.848Z,100620.44
2023-11-22T06:40:32.716Z,100633.78
2023-11-22T06:42:59.331Z,100624.88
2023-11-22T06:45:26.460Z,100637.19
2023-11-22T06:47:53.990Z,100629.09
2023-11-22T06:50:22.052Z,100630.72
2023-11-22T06:52:51.013Z,100630.63
2023-11-22T06:55:18.634Z,100629.09
2023-11-22T06:57:45.403Z,100641.81
2023-11-22T07:00:13.565Z,100641.41
2023-11-22T07:02:40.775Z,100648.00
2023-11-22T07:05:10.932Z,100648.53
2023-11-22T07:07:37.935Z,100658.84
2023-11-22T07:10:06.583Z,100665.53
2023-11-22T07:12:36.348Z,100669.47
2023-11-22T07:15:04.135Z,100663.84
2023-11-22T07:17:31.141Z,100662.59
2023-11-22T07:19:58.510Z,100666.91
2023-11-22T07:22:25.342Z,100671.37
2023-11-22T07:24:58.163Z,100671.44
2023-11-22T07:27:27.051Z,100683.12
2023-11-22T07:29:53.777Z,100675.88
2023-11-22T07:32:21.893Z,100674.81
2023-11-22T07:34:48.608Z,100680.84
2023-11-22T07:37:16.189Z,100681.41
2023-11-22T07:39:44.847Z,100672.44
2023-11-22T07:42:11.533Z,100670.63
2023-11-22T07:44:39.396Z,100679.53
2023-11-22T07:47:10.938Z,100672.44
2023-11-22T07:49:40.655Z,100686.41
2023-11-22T07:52:08.050Z,100689.16
2023-11-22T07:54:36.674Z,100692.03
2023-11-22T07:57:03.528Z,100686.00
2023-11-22T07:59:30.495Z,100690.19
2023-11-22T08:01:58.545Z,100697.75
2023-11-22T08:04:26.130Z,100703.78
2023-11-22T08:06:53.461Z,100701.06
2023-11-22T08:09:20.955Z,100703.44
2023-11-22T08:11:47.628Z,100707.63
2023-11-22T08:14:15.434Z,100723.44
2023-11-22T08:16:44.209Z,100728.78
2023-11-22T08:19:11.055Z,100728.84
2023-11-22T08:21:37.950Z,100729.06
2023-11-22T08:24:04.820Z,100729.53
2023-11-22T08:26:32.231Z,100731.53
2023-11-22T08:28:58.887Z,100734.63
2023-11-22T08:31:25.513Z,100731.56
2023-11-22T08:33:52.177Z,100738.87
2023-11-22T08:36:19.838Z,100738.25
2023-11-22T08:38:47.336Z,100730.56
2023-11-22T08:41:15.122Z,100743.28
2023-11-22T08:43:42.583Z,100733.94
2023-11-22T08:46:14.247Z,100736.06
2023-11-22T08:48:45.141Z,100732.97
2023-11-22T08:51:13.001Z,100743.94
2023-11-22T08:53:39.985Z,100741.56
2023-11-22T08:56:06.924Z,100741.03
2023-11-22T08:58:35.010Z,100749.25
2023-11-22T09:01:02.030Z,100743.22
2023-11-22T09:03:30.193Z,100738.91
2023-11-22T09:05:57.168Z,100738.16
2023-11-22T09:08:26.698Z,100740.12
2023-11-22T09:10:55.611Z,100751.16
2023-11-22T09:13:23.592Z,100739.88
2023-11-22T09:15:51.095Z,100741.94
2023-11-22T09:18:17.984Z,100744.69
2023-11-22T09:20:45.733Z,100745.63
2023-11-22T09:23:12.860Z,100750.13
2023-11-22T09:25:40.315Z,100752.91
2023-11-22T09:28:08.577Z,100751.25
2023-11-22T09:30:43.693Z,100754.84
2023-11-22T09:33:12.572Z,100759.37
2023-11-22T09:35:40.655Z,100766.50
2023-11-22T09:38:13.421Z,100771.31
2023-11-22T09:40:47.373Z,100768.16
2023-11-22T09:43:18.433Z,100771.19
2023-11-22T09:45:46.289Z,100764.41
2023-11-22T09:48:19.403Z,100772.63
2023-11-22T09:50:59.513Z,100779.06
2023-11-22T09:53:34.285Z,100781.88
2023-11-22T09:56:03.885Z,100786.47
2023-11-22T09:58:31.374Z,100784.00
2023-11-22T10:00:58.080Z,100770.16
2023-11-22T10:03:27.128Z,100774.50
2023-11-22T10:06:07.214Z,100774.34
2023-11-22T10:08:34.343Z,100777.88
2023-11-22T10:11:01.158Z,100776.91
2023-11-22T10:13:27.938Z,100775.22
2023-11-22T10:15:54.766Z,100782.31
2023-11-22T10:18:21.710Z,100786.75
2023-11-22T10:20:50.461Z,100785.72
2023-11-22T10:23:20.916Z,100782.78
2023-11-22T10:25:52.738Z,100778.84
2023-11-22T10:28:25.140Z,100791.62
2023-11-22T10:30:57.135Z,100797.41
2023-11-22T10:33:25.023Z,100796.87
2023-11-22T10:35:55.185Z,100802.56
2023-11-22T10:38:22.000Z,100803.47
2023-11-22T10:40:49.320Z,100810.50
2023-11-22T10:43:16.841Z,100818.28
2023-11-22T10:45:50.206Z,100825.97
2023-11-22T10:48:22.064Z,100825.94
2023-11-22T10:50:49.080Z,100835.03
2023-11-22T10:53:23.643Z,100827.28
2023-11-22T10:55:50.402Z,100831.31
2023-11-22T10:58:18.151Z,100826.66
2023-11-22T11:00:45.311Z,100833.41
2023-11-22T11:03:16.665Z,100835.69
2023-11-22T11:05:54.287Z,100840.03
2023-11-22T11:08:21.503Z,100847.78
2023-11-22T11:10:50.791Z,100853.81
2023-11-22T11:13:18.885Z,100858.97
2023-11-22T11:15:46.724Z,100865.88
2023-11-22T11:18:16.445Z,100865.62
2023-11-22T11:20:53.925Z,100868.13
2023-11-22T11:23:21.258Z,100872.38
2023-11-22T11:25:51.543Z,100866.75
2023-11-22T11:28:19.038Z,100862.25
2023-11-22T11:30:47.268Z,100869.19
2023-11-22T11:33:18.269Z,100876.09
2023-11-22T11:35:49.840Z,100879.56
2023-11-22T11:38:18.405Z,100873.34
2023-11-22T11:40:46.876Z,100874.16
2023-11-22T11:43:16.366Z,100872.25
2023-11-22T11:45:49.346Z,100886.22
2023-11-22T11:48:19.543Z,100890.63
2023-11-22T11:50:47.404Z,100887.97
2023-11-22T11:53:14.292Z,100890.53
2023-11-22T11:55:41.237Z,100887.87
2023-11-22T11:58:10.458Z,100886.16
2023-11-22T12:00:42.606Z,100883.53
2023-11-22T12:03:12.240Z,100890.63
2023-11-22T12:05:39.738Z,100892.47
2023-11-22T12:08:06.603Z,100891.63
2023-11-22T12:10:33.423Z,100901.53
2023-11-22T12:13:00.067Z,100894.16
2023-11-22T12:15:26.883Z,100899.22
2023-11-22T12:17:55.605Z,100896.22
2023-11-22T12:20:23.406Z,100901.31
2023-11-22T12:22:50.191Z,100901.97
2023-11-22T12:25:17.092Z,100901.47
2023-11-22T12:27:44.402Z,100900.72
2023-11-22T12:30:12.534Z,100903.50
2023-11-22T12:32:42.675Z,100912.63
2023-11-22T12:35:09.560Z,100921.75
2023-11-22T12:37:36.345Z,100914.84
2023-11-22T12:40:12.192Z,100921.28
2023-11-22T12:42:51.777Z,100926.03
2023-11-22T12:45:25.659Z,100937.03
2023-11-22T12:47:52.982Z,100938.84
2023-11-22T12:50:41.805Z,100956.78
2023-11-22T12:53:10.399Z,100949.09
2023-11-22T12:55:37.978Z,100950.41
2023-11-22T12:58:04.753Z,100954.22
2023-11-22T13:00:31.585Z,100959.72
2023-11-22T13:03:03.691Z,100955.47
2023-11-22T13:05:31.414Z,100955.81
2023-11-22T13:07:59.709Z,100960.47
2023-11-22T13:10:27.277Z,100961.59
2023-11-22T13:12:55.176Z,100972.41
2023-11-22T13:15:24.478Z,100971.66
2023-11-22T13:17:56.335Z,100968.25
2023-11-22T13:20:24.419Z,100966.66
2023-11-22T13:22:51.537Z,100969.63
2023-11-22T13:25:20.148Z,100967.16
2023-11-22T13:27:49.883Z,100962.09
2023-11-22T13:30:18.945Z,100967.50
2023-11-22T13:32:45.696Z,100963.25
2023-11-22T13:35:16.142Z,100965.03
2023-11-22T13:37:46.227Z,100959.91
2023-11-22T13:40:18.688Z,100950.22
2023-11-22T13:42:46.292Z,100960.94
2023-11-22T13:45:16.704Z,100960.44
2023-11-22T13:47:48.451Z,100976.50
2023-11-22T13:50:20.072Z,100983.66
2023-11-22T13:52:47.809Z,100989.16
2023-11-22T13:55:14.575Z,100984.94
2023-11-22T13:57:43.116Z,100988.59
2023-11-22T14:00:36.451Z,100993.22
2023-11-22T14:03:13.094Z,101006.53
2023-11-22T14:05:40.436Z,101009.28
2023-11-22T14:08:10.090Z,101007.56
2023-11-22T14:10:39.593Z,101009.41
2023-11-22T14:13:07.324Z,101000.69
2023-11-22T14:15:42.930Z,101001.66
2023-11-22T14:18:09.688Z,100998.12
2023-11-22T14:20:36.702Z,100984.03
2023-11-22T14:23:03.635Z,100985.66
2023-11-22T14:25:30.485Z,100999.69
2023-11-22T14:27:58.406Z,101002.94
2023-11-22T14:30:26.992Z,101007.97
2023-11-22T14:32:54.358Z,101014.66
2023-11-22T14:35:21.186Z,101017.91
2023-11-22T14:37:48.513Z,101017.47
2023-11-22T14:40:15.370Z,101034.53
2023-11-22T14:42:43.023Z,101040.78
2023-11-22T14:45:10.555Z,101037.41
2023-11-22T14:47:37.768Z,101043.72
2023-11-22T14:50:07.661Z,101043.22
2023-11-22T14:52:34.552Z,101040.00
2023-11-22T14:55:01.827Z,101043.13
2023-11-22T14:57:28.553Z,101047.34
2023-11-22T14:59:55.633Z,101037.41
2023-11-22T15:02:22.893Z,101048.72
2023-11-22T15:04:49.624Z,101045.88
2023-11-22T15:07:16.298Z,101042.22
2023-11-22T15:09:43.188Z,101057.22
2023-11-22T15:12:12.948Z,101064.22
2023-11-22T15:14:40.996Z,101063.16
2023-11-22T15:17:08.725Z,101057.69
2023-11-22T15:19:39.020Z,101052.34
2023-11-22T15:22:07.105Z,101068.13
2023-11-22T15:24:34.381Z,101076.06
2023-11-22T15:27:01.068Z,101079.50
2023-11-22T15:29:27.776Z,101069.66
2023-11-22T15:31:55.518Z,101065.16
2023-11-22T15:34:22.810Z,101081.91
2023-11-22T15:36:49.508Z,101087.19
2023-11-22T15:39:23.083Z,101094.13
2023-11-22T15:41:49.847Z,101100.28
2023-11-22T15:44:16.976Z,101096.69
2023-11-22T15:46:43.919Z,101104.66
2023-11-22T15:49:13.861Z,101107.25
2023-11-22T15:51:40.882Z,101113.50
2023-11-22T15:54:11.283Z,101120.47
2023-11-22T15:56:38.095Z,101124.87
2023-11-22T15:59:05.034Z,101136.28
2023-11-22T16:01:32.610Z,101147.78
2023-11-22T16:03:59.569Z,101153.13
2023-11-22T16:06:29.173Z,101153.13
2023-11-22T16:08:57.052Z,101161.06
2023-11-22T16:11:24.209Z,101161.91
2023-11-22T16:13:51.553Z,101161.84
2023-11-22T16:16:19.393Z,101171.63
2023-11-22T16:18:46.344Z,101177.72
2023-11-22T16:21:14.249Z,101179.66
2023-11-22T16:23:40.966Z,101184.28
2023-11-22T16:26:07.790Z,101189.87
2023-11-22T16:28:35.400Z,101184.94
2023-11-22T16:31:03.953Z,101192.38
2023-11-22T16:33:31.039Z,101197.06
2023-11-22T16:35:57.876Z,101198.28
2023-11-22T16:38:25.108Z,101203.97
2023-11-22T16:40:54.151Z,101201.59
2023-11-22T16:43:21.604Z,101197.50
2023-11-22T16:45:50.051Z,101201.38
2023-11-22T16:48:16.882Z,101211.41
2023-11-22T16:50:43.933Z,101215.31
2023-11-22T16:53:12.279Z,101227.13
2023-11-22T16:55:39.850Z,101220.34
2023-11-22T16:58:07.200Z,101219.72
2023-11-22T17:00:34.217Z,101227.97
2023-11-22T17:03:01.975Z,101233.50
2023-11-22T17:05:28.922Z,101238.97
2023-11-22T17:07:58.076Z,101235.59
2023-11-22T17:10:44.925Z,101229.59
2023-11-22T17:13:12.637Z,101227.97
2023-11-22T17:15:41.247Z,101218.50
2023-11-22T17:18:08.665Z,101218.66
2023-11-22T17:20:35.864Z,101217.09
2023-11-22T17:23:02.552Z,101227.88
2023-11-22T17:25:31.398Z,101238.66
2023-11-22T17:27:58.060Z,101241.50
2023-11-22T17:30:29.766Z,101249.63
2023-11-22T17:32:56.649Z,101248.84
2023-11-22T17:35:25.251Z,101256.94
2023-11-22T17:37:55.281Z,101256.19
2023-11-22T17:40:22.062Z,101266.94
2023-11-22T17:42:48.778Z,101273.25
2023-11-22T17:45:16.543Z,101270.72
2023-11-22T17:47:44.431Z,101286.78
2023-11-22T17:50:12.309Z,101297.44
2023-11-22T17:52:39.094Z,101292.28
2023-11-22T17:55:06.300Z,101290.69
2023-11-22T17:57:33.515Z,101304.94
2023-11-22T18:00:00.697Z,101299.78
2023-11-22T18:02:27.699Z,101311.44
2023-11-22T18:04:54.478Z,101299.25
2023-11-22T18:07:22.436Z,101306.47
2023-11-22T18:09:49.807Z,101305.72
2023-11-22T18:12:16.775Z,101302.34
2023-11-22T18:14:45.648Z,101311.22
2023-11-22T18:17:12.771Z,101314.00
2023-11-22T18:19:39.726Z,101313.28
2023-11-22T18:22:06.420Z,101317.72
2023-11-22T18:24:33.979Z,101316.72
2023-11-22T18:27:01.032Z,101314.72
2023-11-22T18:29:28.956Z,101323.28
2023-11-22T18:32:00.132Z,101331.72
2023-11-22T18:34:33.164Z,101341.97
2023-11-22T18:37:01.324Z,101351.38
2023-11-22T18:39:29.175Z,101352.72
2023-11-22T18:41:55.926Z,101348.59
2023-11-22T18:44:22.678Z,101349.72
2023-11-22T18:46:49.899Z,101349.94
2023-11-22T18:49:16.736Z,101356.38
2023-11-22T18:51:44.026Z,101355.84
2023-11-22T18:54:11.945Z,101356.31
2023-11-22T18:56:40.740Z,101354.19
2023-11-22T18:59:08.094Z,101355.69
2023-11-22T19:01:35.840Z,101352.84
2023-11-22T19:04:02.704Z,101355.37
2023-11-22T19:06:29.379Z,101350.81
2023-11-22T19:08:55.987Z,101346.34
2023-11-22T19:11:22.661Z,101345.34
2023-11-22T19:13:50.673Z,101346.97
2023-11-22T19:16:17.527Z,101356.56
2023-11-22T19:18:44.410Z,101350.25
2023-11-22T19:21:11.390Z,101363.53
2023-11-22T19:23:38.848Z,101367.19
2023-11-22T19:26:05.960Z,101365.56
2023-11-22T19:28:33.013Z,101375.56
2023-11-22T19:31:00.395Z,101370.44
2023-11-22T19:33:27.188Z,101374.19
2023-11-22T19:35:54.122Z,101368.28
2023-11-22T19:38:22.143Z,101372.03
2023-11-22T19:40:49.050Z,101372.31
2023-11-22T19:43:17.140Z,101370.78
2023-11-22T19:45:44.740Z,101385.19
2023-11-22T19:48:11.896Z,101385.38
2023-11-22T19:50:38.815Z,101395.41
2023-11-22T19:53:05.559Z,101400.91
2023-11-22T19:55:34.512Z,101409.03
2023-11-22T19:58:02.279Z,101425.97
2023-11-22T20:00:29.212Z,101422.59
2023-11-22T20:02:56.133Z,101427.97
2023-11-22T20:05:22.906Z,101431.59
2023-11-22T20:07:49.738Z,101450.25
2023-11-22T20:10:16.911Z,101452.91
2023-11-22T20:12:43.947Z,101466.25
2023-11-22T20:15:11.013Z,101470.69
2023-11-22T20:17:37.987Z,101480.38
2023-11-22T20:20:07.979Z,101480.44
2023-11-22T20:22:34.911Z,101479.56
2023-11-22T20:25:04.137Z,101469.81
2023-11-22T20:27:30.800Z,101459.19
2023-11-22T20:29:57.583Z,101458.34
2023-11-22T20:32:26.355Z,101445.97
2023-11-22T20:34:53.236Z,101443.37
2023-11-22T20:37:19.988Z,101442.50
2023-11-22T20:39:46.741Z,101436.34
2023-11-22T20:42:13.403Z,101442.50
2023-11-22T20:44:40.273Z,101438.97
2023-11-22T20:47:06.969Z,101439.91
2023-11-22T20:49:33.951Z,101437.25
2023-11-22T20:52:00.943Z,101439.91
2023-11-22T20:54:27.600Z,101447.03
2023-11-22T20:56:54.436Z,101439.06
2023-11-22T20:59:21.155Z,101439.06
2023-11-22T21:01:48.017Z,101450.53
2023-11-22T21:04:15.008Z,101442.63
2023-11-22T21:06:42.473Z,101447.94
2023-11-22T21:09:09.653Z,101446.22
2023-11-22T21:11:42.957Z,101432.94
2023-11-22T21:14:17.587Z,101443.56
2023-11-22T21:16:44.674Z,101444.50
2023-11-22T21:19:12.757Z,101442.63
2023-11-22T21:21:42.287Z,101442.69
2023-11-22T21:24:09.897Z,101444.50
2023-11-22T21:26:36.609Z,101452.44
2023-11-22T21:29:03.415Z,101453.34
2023-11-22T21:31:30.058Z,101470.13
2023-11-22T21:33:56.866Z,101479.00
2023-11-22T21:36:23.663Z,101464.00
2023-11-22T21:38:50.550Z,101462.22
2023-11-22T21:41:17.325Z,101463.13
2023-11-22T21:43:46.832Z,101462.28
2023-11-22T21:46:20.194Z,101459.63
2023-11-22T21:48:49.668Z,101462.28
2023-11-22T21:51:16.391Z,101461.41
2023-11-22T21:53:43.139Z,101464.97
2023-11-22T21:56:09.962Z,101462.34
2023-11-22T21:58:36.867Z,101459.69
2023-11-22T22:01:03.706Z,101460.56
2023-11-22T22:03:30.552Z,101469.38
2023-11-22T22:05:57.383Z,101470.38
2023-11-22T22:08:24.633Z,101473.87
2023-11-22T22:10:51.699Z,101485.34
2023-11-22T22:13:21.048Z,101479.19
2023-11-22T22:15:47.953Z,101476.53
2023-11-22T22:18:14.920Z,101473.81
2023-11-22T22:20:51.392Z,101477.41
2023-11-22T22:23:22.430Z,101473.00
2023-11-22T22:25:49.054Z,101480.97
2023-11-22T22:28:16.123Z,101486.28
2023-11-22T22:30:42.858Z,101479.25
2023-11-22T22:33:12.287Z,101484.53
2023-11-22T22:35:39.476Z,101481.91
2023-11-22T22:38:06.304Z,101488.97
2023-11-22T22:40:34.398Z,101489.84
2023-11-22T22:43:01.160Z,101486.28
2023-11-22T22:45:27.860Z,101480.91
2023-11-22T22:47:55.012Z,101480.91
2023-11-22T22:50:23.168Z,101487.06
2023-11-22T22:52:50.234Z,101490.53
2023-11-22T22:55:17.062Z,101479.91
2023-11-22T22:57:44.353Z,101464.88
2023-11-22T23:00:23.986Z,101466.59
2023-11-22T23:02:50.917Z,101465.72
2023-11-22T23:05:24.470Z,101453.31
2023-11-22T23:07:53.257Z,101449.78
2023-11-22T23:10:20.161Z,101445.34
2023-11-22T23:12:46.906Z,101441.78
2023-11-22T23:15:13.605Z,101440.00
2023-11-22T23:17:40.909Z,101432.03
2023-11-22T23:20:14.789Z,101432.03
2023-11-22T23:22:44.507Z,101434.69
2023-11-22T23:25:14.188Z,101430.25
2023-11-22T23:27:40.868Z,101425.88
2023-11-22T23:30:12.158Z,101441.72
2023-11-22T23:32:39.868Z,101439.06
2023-11-22T23:35:07.897Z,101432.84
2023-11-22T23:37:34.596Z,101437.28
2023-11-22T23:40:10.437Z,101437.28
2023-11-22T23:42:40.608Z,101449.66
2023-11-22T23:45:09.508Z,101447.81
2023-11-22T23:47:36.363Z,101451.31
2023-11-22T23:50:04.952Z,101457.56
2023-11-22T23:52:31.902Z,101449.59
2023-11-22T23:54:59.070Z,101444.34
2023-11-22T23:57:26.118Z,101441.69
2023-11-22T23:59:53.021Z,101432.81
